Time;durP1;ratioP1;P1;durP2;ratioP2;P2;SDS_P1;SDS_P2;PMS_P1;PMS_P2;Temp;Humidity;BMP_temperature;BMP_pressure;BME280_temperature;BME280_humidity;BME280_pressure;Samples;Min_cycle;Max_cycle;Signal;HPM_P1;HPM_P2
2021/05/12 00:00:22;;;;;;;;;;;13.40;99.90;;;;;;5024838;28;20012;-73
2021/05/12 00:02:50;;;;;;;;;;;13.30;99.90;;;;;;4994138;28;20008;-73
2021/05/12 00:05:19;;;;;;;;;;;13.30;99.90;;;;;;5026523;28;19923;-74
2021/05/12 00:07:47;;;;;;;;;;;13.30;99.90;;;;;;4993000;28;19936;-73
2021/05/12 00:10:13;;;;;;;;;;;13.20;99.90;;;;;;5027419;28;19952;-73
2021/05/12 00:12:39;;;;;;;;;;;13.20;99.90;;;;;;5020712;28;19964;-73
2021/05/12 00:15:09;;;;;;;;;;;13.20;99.90;;;;;;4996172;28;20460;-73
2021/05/12 00:17:38;;;;;;;;;;;13.20;99.90;;;;;;5000841;28;19925;-73
2021/05/12 00:20:04;;;;;;;;;;;13.20;99.90;;;;;;5020465;28;19975;-73
2021/05/12 00:25:05;;;;;;;;;;;13.10;99.90;;;;;;5019129;28;19928;-73
2021/05/12 00:27:31;;;;;;;;;;;13.00;99.90;;;;;;4988919;28;19955;-73
2021/05/12 00:29:59;;;;;;;;;;;12.90;99.90;;;;;;5008851;28;19960;-73
2021/05/12 00:32:27;;;;;;;;;;;13.00;99.90;;;;;;5032331;28;19928;-73
2021/05/12 00:34:54;;;;;;;;;;;13.00;99.90;;;;;;5030495;28;19924;-73
2021/05/12 00:37:20;;;;;;;;;;;13.00;99.90;;;;;;5028671;28;19932;-73
2021/05/12 00:39:45;;;;;;;;;;;13.00;99.90;;;;;;5012389;28;19913;-73
2021/05/12 00:42:11;;;;;;;;;;;13.00;99.90;;;;;;5025016;28;19952;-73
2021/05/12 00:44:36;;;;;;;;;;;12.90;99.90;;;;;;5023742;28;19928;-73
2021/05/12 00:47:03;;;;;;;;;;;12.90;99.90;;;;;;5023014;28;21902;-74
2021/05/12 00:49:29;;;;;;;;;;;12.90;99.90;;;;;;5005367;28;20309;-73
2021/05/12 00:51:54;;;;;;;;;;;12.90;99.90;;;;;;5006102;28;19932;-72
2021/05/12 00:54:22;;;;;;;;;;;12.80;99.90;;;;;;5023076;28;19925;-72
2021/05/12 00:56:49;;;;;;;;;;;12.80;99.90;;;;;;5023851;28;20482;-72
2021/05/12 00:59:15;;;;;;;;;;;12.80;99.90;;;;;;5024997;28;19928;-73
2021/05/12 01:01:43;;;;;;;;;;;12.90;99.90;;;;;;5024300;28;19917;-73
2021/05/12 01:04:11;;;;;;;;;;;12.80;99.90;;;;;;5004467;28;19928;-73
2021/05/12 01:06:37;;;;;;;;;;;12.80;99.90;;;;;;5008150;28;19917;-73
2021/05/12 01:09:05;;;;;;;;;;;12.80;99.90;;;;;;5029740;28;20404;-72
2021/05/12 01:11:33;;;;;;;;;;;12.80;99.90;;;;;;5003720;28;19921;-73
2021/05/12 01:13:59;;;;;;;;;;;12.80;99.90;;;;;;4999159;28;19916;-72
2021/05/12 01:16:24;;;;;;;;;;;12.80;99.90;;;;;;5009113;28;19960;-73
2021/05/12 01:18:52;;;;;;;;;;;12.80;99.90;;;;;;5023409;28;20794;-72
2021/05/12 01:21:20;;;;;;;;;;;12.80;99.90;;;;;;5023394;28;19913;-72
2021/05/12 01:23:46;;;;;;;;;;;12.80;99.90;;;;;;5022741;28;19990;-72
2021/05/12 01:26:16;;;;;;;;;;;12.80;99.90;;;;;;5028829;28;20366;-72
2021/05/12 01:28:43;;;;;;;;;;;12.70;99.90;;;;;;5028506;28;19932;-73
2021/05/12 01:31:13;;;;;;;;;;;12.80;99.90;;;;;;5009640;28;19940;-73
2021/05/12 01:33:41;;;;;;;;;;;12.80;99.90;;;;;;5009022;28;19972;-72
2021/05/12 01:36:06;;;;;;;;;;;12.70;99.90;;;;;;5008670;28;19956;-72
2021/05/12 01:38:34;;;;;;;;;;;12.70;99.90;;;;;;5028261;28;19960;-72
2021/05/12 01:41:01;;;;;;;;;;;12.70;99.90;;;;;;5008552;28;19945;-72
2021/05/12 01:43:30;;;;;;;;;;;12.70;99.90;;;;;;4994812;28;19967;-73
2021/05/12 01:45:56;;;;;;;;;;;12.70;99.90;;;;;;5010482;28;20385;-73
2021/05/12 01:48:25;;;;;;;;;;;12.70;99.90;;;;;;5007778;28;19925;-73
2021/05/12 01:50:51;;;;;;;;;;;12.60;99.90;;;;;;5023426;28;19971;-72
2021/05/12 01:53:19;;;;;;;;;;;12.60;99.90;;;;;;5010304;28;19913;-72
2021/05/12 01:55:47;;;;;;;;;;;12.60;99.90;;;;;;5029661;28;19943;-72
2021/05/12 01:58:12;;;;;;;;;;;12.50;99.90;;;;;;5028261;28;19913;-72
2021/05/12 02:00:39;;;;;;;;;;;12.60;99.90;;;;;;5028002;28;19917;-73
2021/05/12 02:03:06;;;;;;;;;;;12.50;99.90;;;;;;5027859;28;19972;-74
2021/05/12 02:05:34;;;;;;;;;;;12.50;99.90;;;;;;5023271;28;19921;-73
2021/05/12 02:08:00;;;;;;;;;;;12.50;99.90;;;;;;5004914;28;19992;-72
2021/05/12 02:10:27;;;;;;;;;;;12.60;99.90;;;;;;5003382;28;19922;-73
2021/05/12 02:12:52;;;;;;;;;;;12.50;99.90;;;;;;4987770;28;19921;-72
2021/05/12 02:15:18;;;;;;;;;;;12.50;99.90;;;;;;5002576;28;19952;-72
2021/05/12 02:17:46;;;;;;;;;;;12.50;99.90;;;;;;5000657;28;20075;-72
2021/05/12 02:20:13;;;;;;;;;;;12.60;99.90;;;;;;5002076;28;19988;-73
2021/05/12 02:22:39;;;;;;;;;;;12.60;99.90;;;;;;5002537;28;19968;-73
2021/05/12 02:25:05;;;;;;;;;;;12.50;99.90;;;;;;5000275;28;20012;-72
2021/05/12 02:27:33;;;;;;;;;;;12.50;99.90;;;;;;5003973;28;19931;-73
2021/05/12 02:30:01;;;;;;;;;;;12.50;99.90;;;;;;5009589;28;20362;-73
2021/05/12 02:32:29;;;;;;;;;;;12.50;99.90;;;;;;5004337;28;19917;-73
2021/05/12 02:34:55;;;;;;;;;;;12.50;99.90;;;;;;5002602;28;19960;-73
2021/05/12 02:37:21;;;;;;;;;;;12.50;99.90;;;;;;4976836;28;20478;-73
2021/05/12 02:39:49;;;;;;;;;;;12.60;99.90;;;;;;5002420;28;19921;-72
2021/05/12 02:42:15;;;;;;;;;;;12.60;99.90;;;;;;5001445;28;19925;-72
2021/05/12 02:44:40;;;;;;;;;;;12.50;99.90;;;;;;4999176;28;20417;-72
2021/05/12 02:47:08;;;;;;;;;;;12.50;99.90;;;;;;5002123;28;20799;-73
2021/05/12 02:49:34;;;;;;;;;;;12.50;99.90;;;;;;5008112;28;20409;-73
2021/05/12 02:51:59;;;;;;;;;;;12.50;99.90;;;;;;5007228;28;19922;-73
2021/05/12 02:54:25;;;;;;;;;;;12.50;99.90;;;;;;5009131;28;20475;-72
2021/05/12 02:56:50;;;;;;;;;;;12.40;99.90;;;;;;5008284;28;19925;-72
2021/05/12 02:59:16;;;;;;;;;;;12.40;99.90;;;;;;5003859;28;20356;-72
2021/05/12 03:01:41;;;;;;;;;;;12.50;99.90;;;;;;5001731;28;19922;-72
2021/05/12 03:04:09;;;;;;;;;;;12.50;99.90;;;;;;5001456;28;20512;-72
2021/05/12 03:06:34;;;;;;;;;;;12.50;99.90;;;;;;5002864;28;19913;-73
2021/05/12 03:09:00;;;;;;;;;;;12.40;99.90;;;;;;5009209;28;19979;-72
2021/05/12 03:11:25;;;;;;;;;;;12.50;99.90;;;;;;5005372;28;19922;-73
2021/05/12 03:13:51;;;;;;;;;;;12.50;99.90;;;;;;5001363;28;19926;-72
2021/05/12 03:16:16;;;;;;;;;;;12.50;99.90;;;;;;4994513;28;19976;-72
2021/05/12 03:18:42;;;;;;;;;;;12.40;99.90;;;;;;5015653;28;19928;-72
2021/05/12 03:21:13;;;;;;;;;;;12.50;99.90;;;;;;5020390;28;19940;-72
2021/05/12 03:23:38;;;;;;;;;;;12.50;99.90;;;;;;5008856;28;19917;-72
2021/05/12 03:26:06;;;;;;;;;;;12.60;99.90;;;;;;5022025;28;20239;-72
2021/05/12 03:28:31;;;;;;;;;;;12.40;99.90;;;;;;5020898;28;19932;-72
2021/05/12 03:30:59;;;;;;;;;;;12.50;99.90;;;;;;5024867;28;19921;-72
2021/05/12 03:33:27;;;;;;;;;;;12.50;99.90;;;;;;5006587;28;20377;-72
2021/05/12 03:35:55;;;;;;;;;;;12.60;99.90;;;;;;5024982;28;19923;-72
2021/05/12 03:38:20;;;;;;;;;;;12.60;99.90;;;;;;5028325;28;20090;-72
2021/05/12 03:40:46;;;;;;;;;;;12.60;99.90;;;;;;5022974;28;20003;-72
2021/05/12 03:43:13;;;;;;;;;;;12.60;99.90;;;;;;5021206;28;19921;-72
2021/05/12 03:45:39;;;;;;;;;;;12.70;99.90;;;;;;5027964;28;19951;-72
2021/05/12 03:48:06;;;;;;;;;;;12.70;99.90;;;;;;5010462;28;19987;-72
2021/05/12 03:50:31;;;;;;;;;;;12.70;99.90;;;;;;5019338;28;19949;-72
2021/05/12 03:52:57;;;;;;;;;;;12.50;99.90;;;;;;5000518;28;20746;-72
2021/05/12 03:55:22;;;;;;;;;;;12.60;99.90;;;;;;5002989;28;19917;-72
2021/05/12 03:57:48;;;;;;;;;;;12.60;99.90;;;;;;4996202;28;19925;-72
2021/05/12 04:00:14;;;;;;;;;;;12.60;99.90;;;;;;5019840;28;19941;-72
2021/05/12 04:02:42;;;;;;;;;;;12.50;99.90;;;;;;5002429;28;19925;-72
2021/05/12 04:05:08;;;;;;;;;;;12.60;99.90;;;;;;5030282;28;19928;-72
2021/05/12 04:07:33;;;;;;;;;;;12.60;99.90;;;;;;5028952;28;20367;-72
2021/05/12 04:10:01;;;;;;;;;;;12.50;99.90;;;;;;5011392;28;19928;-72
2021/05/12 04:12:27;;;;;;;;;;;12.60;99.90;;;;;;5004410;28;19917;-72
2021/05/12 04:14:52;;;;;;;;;;;12.60;99.90;;;;;;5025230;28;19913;-72
2021/05/12 04:17:18;;;;;;;;;;;12.60;99.90;;;;;;5031038;28;19925;-71
2021/05/12 04:19:44;;;;;;;;;;;12.60;99.90;;;;;;5030193;28;20351;-72
2021/05/12 04:22:09;;;;;;;;;;;12.60;99.90;;;;;;5032222;28;19921;-72
2021/05/12 04:24:37;;;;;;;;;;;12.60;99.90;;;;;;5013967;28;20506;-72
2021/05/12 04:27:03;;;;;;;;;;;12.60;99.90;;;;;;5029477;28;19913;-73
2021/05/12 04:29:28;;;;;;;;;;;12.60;99.90;;;;;;5011681;28;19957;-72
2021/05/12 04:31:56;;;;;;;;;;;12.60;99.90;;;;;;5006200;28;19917;-72
2021/05/12 04:34:22;;;;;;;;;;;12.60;99.90;;;;;;5027052;28;19917;-72
2021/05/12 04:36:47;;;;;;;;;;;12.60;99.90;;;;;;5031318;28;20313;-72
2021/05/12 04:39:13;;;;;;;;;;;12.60;99.90;;;;;;5026107;28;19925;-71
2021/05/12 04:41:38;;;;;;;;;;;12.60;99.90;;;;;;5003244;28;19967;-71
2021/05/12 04:44:06;;;;;;;;;;;12.60;99.90;;;;;;5031109;28;20392;-72
2021/05/12 04:46:32;;;;;;;;;;;12.50;99.90;;;;;;5028806;28;19960;-72
2021/05/12 04:48:58;;;;;;;;;;;12.60;99.90;;;;;;5023948;28;20064;-72
2021/05/12 04:51:29;;;;;;;;;;;12.60;99.90;;;;;;5005590;28;19944;-72
2021/05/12 04:53:57;;;;;;;;;;;12.50;99.90;;;;;;5024236;28;19917;-72
2021/05/12 04:56:22;;;;;;;;;;;12.50;99.90;;;;;;4989078;28;20032;-72
2021/05/12 04:58:48;;;;;;;;;;;12.60;99.90;;;;;;5024278;28;19925;-72
2021/05/12 05:01:13;;;;;;;;;;;12.50;99.90;;;;;;5023153;28;19932;-72
2021/05/12 05:03:42;;;;;;;;;;;12.50;99.90;;;;;;5024202;28;20769;-72
2021/05/12 05:06:08;;;;;;;;;;;12.50;99.90;;;;;;5007278;28;19971;-72
2021/05/12 05:08:36;;;;;;;;;;;12.60;99.90;;;;;;5027711;28;19956;-72
2021/05/12 05:11:02;;;;;;;;;;;12.50;99.90;;;;;;5029791;28;19931;-72
2021/05/12 05:13:32;;;;;;;;;;;12.50;99.90;;;;;;5009540;28;19925;-72
2021/05/12 05:16:00;;;;;;;;;;;12.50;99.90;;;;;;5001506;28;19924;-72
2021/05/12 05:18:28;;;;;;;;;;;12.60;99.90;;;;;;4993221;28;19979;-72
2021/05/12 05:20:54;;;;;;;;;;;12.50;99.90;;;;;;5023898;28;19921;-72
2021/05/12 05:23:20;;;;;;;;;;;12.50;99.90;;;;;;5022748;28;20198;-72
2021/05/12 05:25:45;;;;;;;;;;;12.40;99.90;;;;;;5023588;28;19921;-72
2021/05/12 05:28:11;;;;;;;;;;;12.40;99.90;;;;;;5023477;28;20024;-73
2021/05/12 05:30:36;;;;;;;;;;;12.30;99.90;;;;;;5004589;28;19917;-72
2021/05/12 05:33:02;;;;;;;;;;;12.30;99.90;;;;;;5023047;28;19921;-72
2021/05/12 05:35:30;;;;;;;;;;;12.30;99.90;;;;;;5003914;28;19933;-71
2021/05/12 05:37:55;;;;;;;;;;;12.40;99.90;;;;;;5021707;28;19962;-72
2021/05/12 05:40:23;;;;;;;;;;;12.40;99.90;;;;;;5005663;28;20253;-72
2021/05/12 05:42:59;;;;;;;;;;;12.40;99.90;;;;;;5022505;28;19917;-72
2021/05/12 05:45:25;;;;;;;;;;;12.30;99.90;;;;;;5003495;28;20335;-71
2021/05/12 05:47:50;;;;;;;;;;;12.40;99.90;;;;;;5022926;28;21831;-72
2021/05/12 05:50:18;;;;;;;;;;;12.30;99.90;;;;;;5027805;28;19913;-71
2021/05/12 05:52:46;;;;;;;;;;;12.40;99.90;;;;;;5030044;28;19913;-72
2021/05/12 05:55:12;;;;;;;;;;;12.50;99.90;;;;;;5022483;28;21769;-71
2021/05/12 05:57:40;;;;;;;;;;;12.40;99.90;;;;;;4982327;28;20016;-72
2021/05/12 06:00:06;;;;;;;;;;;12.40;99.90;;;;;;5022311;28;19917;-72
2021/05/12 06:02:35;;;;;;;;;;;12.50;99.90;;;;;;5003481;28;19947;-71
2021/05/12 06:05:02;;;;;;;;;;;12.50;99.90;;;;;;5004120;28;19925;-72
2021/05/12 06:07:28;;;;;;;;;;;12.50;99.90;;;;;;5021821;28;19925;-72
2021/05/12 06:09:53;;;;;;;;;;;12.60;99.90;;;;;;5022812;28;19928;-72
2021/05/12 06:12:19;;;;;;;;;;;12.60;99.90;;;;;;5022656;28;19917;-71
2021/05/12 06:14:44;;;;;;;;;;;12.60;99.90;;;;;;5021832;28;19917;-71
2021/05/12 06:17:10;;;;;;;;;;;12.60;99.90;;;;;;4996454;28;19943;-71
2021/05/12 06:19:35;;;;;;;;;;;12.70;99.90;;;;;;5003424;28;20420;-73
2021/05/12 06:22:03;;;;;;;;;;;12.70;99.90;;;;;;5024521;28;20269;-72
2021/05/12 06:24:31;;;;;;;;;;;12.70;99.90;;;;;;5026988;28;19919;-72
2021/05/12 06:26:57;;;;;;;;;;;12.70;99.90;;;;;;5026676;28;19917;-72
2021/05/12 06:29:22;;;;;;;;;;;12.70;99.90;;;;;;5026463;28;19920;-72
2021/05/12 06:31:48;;;;;;;;;;;12.70;99.90;;;;;;5026225;28;20012;-73
2021/05/12 06:34:13;;;;;;;;;;;12.70;99.90;;;;;;5026871;28;20251;-72
2021/05/12 06:36:41;;;;;;;;;;;12.70;99.90;;;;;;5026330;28;19924;-71
2021/05/12 06:39:07;;;;;;;;;;;12.60;99.90;;;;;;5028081;28;19917;-72
2021/05/12 06:41:37;;;;;;;;;;;12.60;99.90;;;;;;5027665;28;20258;-70
2021/05/12 06:44:03;;;;;;;;;;;12.60;99.90;;;;;;5024214;28;19924;-70
2021/05/12 06:46:29;;;;;;;;;;;12.70;99.90;;;;;;5008901;28;19928;-72
2021/05/12 06:48:54;;;;;;;;;;;12.70;99.90;;;;;;5025247;28;19925;-72
2021/05/12 06:51:22;;;;;;;;;;;12.80;99.90;;;;;;5026088;28;19939;-72
2021/05/12 06:53:50;;;;;;;;;;;12.80;99.90;;;;;;5025234;28;20062;-72
2021/05/12 06:56:15;;;;;;;;;;;12.80;99.90;;;;;;5007381;28;19917;-72
2021/05/12 06:58:42;;;;;;;;;;;12.90;99.90;;;;;;5024796;28;20480;-72
2021/05/12 07:01:08;;;;;;;;;;;12.90;99.90;;;;;;5024808;28;20401;-72
2021/05/12 07:03:36;;;;;;;;;;;12.90;99.90;;;;;;5007478;28;20321;-72
2021/05/12 07:06:02;;;;;;;;;;;12.90;99.90;;;;;;5007023;28;19932;-71
2021/05/12 07:08:33;;;;;;;;;;;12.90;99.90;;;;;;5011068;28;19921;-71
2021/05/12 07:10:59;;;;;;;;;;;12.90;99.90;;;;;;5024104;28;19944;-72
2021/05/12 07:13:24;;;;;;;;;;;12.80;99.90;;;;;;5024461;28;20318;-72
2021/05/12 07:15:50;;;;;;;;;;;12.80;99.90;;;;;;5006433;28;21071;-72
2021/05/12 07:18:15;;;;;;;;;;;12.80;99.90;;;;;;5024241;28;20586;-72
2021/05/12 07:20:41;;;;;;;;;;;12.80;99.90;;;;;;5024592;28;20423;-70
2021/05/12 07:23:07;;;;;;;;;;;12.80;99.90;;;;;;5022745;28;19943;-72
2021/05/12 07:25:32;;;;;;;;;;;12.90;99.90;;;;;;5024108;28;20253;-71
2021/05/12 07:27:58;;;;;;;;;;;12.90;99.90;;;;;;5020735;28;19925;-72
2021/05/12 07:30:24;;;;;;;;;;;12.90;99.90;;;;;;5006015;28;19913;-72
2021/05/12 07:32:49;;;;;;;;;;;13.00;99.90;;;;;;5024163;28;20679;-71
2021/05/12 07:35:17;;;;;;;;;;;13.10;99.90;;;;;;5024511;28;20519;-71
2021/05/12 07:37:45;;;;;;;;;;;13.10;99.90;;;;;;5024117;28;19913;-72
2021/05/12 07:40:14;;;;;;;;;;;13.10;99.90;;;;;;5023628;28;19928;-71
2021/05/12 07:42:44;;;;;;;;;;;13.20;99.90;;;;;;5008576;28;19914;-72
2021/05/12 07:45:11;;;;;;;;;;;13.20;99.90;;;;;;5023301;28;20012;-71
2021/05/12 07:47:37;;;;;;;;;;;13.30;99.90;;;;;;5005356;28;19919;-71
2021/05/12 07:50:05;;;;;;;;;;;13.40;99.90;;;;;;5006874;28;19955;-71
2021/05/12 07:52:31;;;;;;;;;;;13.30;99.90;;;;;;5022720;28;19913;-71
2021/05/12 07:54:56;;;;;;;;;;;13.30;99.90;;;;;;5025059;28;19932;-71
2021/05/12 07:57:22;;;;;;;;;;;13.30;99.90;;;;;;5023626;28;19956;-71
2021/05/12 07:59:47;;;;;;;;;;;13.20;99.90;;;;;;5023068;28;20014;-71
2021/05/12 08:02:14;;;;;;;;;;;13.30;99.90;;;;;;5024992;28;20238;-71
2021/05/12 08:04:42;;;;;;;;;;;13.40;99.90;;;;;;5023166;28;19949;-71
2021/05/12 08:07:07;;;;;;;;;;;13.40;99.90;;;;;;5021805;28;19922;-72
2021/05/12 08:09:33;;;;;;;;;;;13.40;99.90;;;;;;5024199;28;20432;-71
2021/05/12 08:11:59;;;;;;;;;;;13.50;99.90;;;;;;5022382;28;20446;-71
2021/05/12 08:14:27;;;;;;;;;;;13.50;99.90;;;;;;5004280;28;19921;-72
2021/05/12 08:16:55;;;;;;;;;;;13.60;99.90;;;;;;5001810;28;19920;-72
2021/05/12 08:19:20;;;;;;;;;;;13.60;99.90;;;;;;5004541;28;20717;-71
2021/05/12 08:21:48;;;;;;;;;;;13.60;99.90;;;;;;5004438;28;19941;-71
2021/05/12 08:24:14;;;;;;;;;;;13.50;99.50;;;;;;5005751;28;20339;-71
2021/05/12 08:26:39;;;;;;;;;;;13.60;99.90;;;;;;4988636;28;19921;-71
2021/05/12 08:29:06;;;;;;;;;;;13.70;99.90;;;;;;5022516;28;19927;-72
2021/05/12 08:31:32;;;;;;;;;;;13.70;99.90;;;;;;5022692;28;20012;-71
2021/05/12 08:34:00;;;;;;;;;;;13.80;99.90;;;;;;5026104;28;20009;-72
2021/05/12 08:36:25;;;;;;;;;;;13.80;99.90;;;;;;5005578;28;20020;-72
2021/05/12 08:38:51;;;;;;;;;;;13.80;99.90;;;;;;5012393;28;20016;-73
2021/05/12 08:41:17;;;;;;;;;;;13.90;99.90;;;;;;5006789;28;19923;-71
2021/05/12 08:43:42;;;;;;;;;;;13.90;99.90;;;;;;5007790;28;19968;-72
2021/05/12 08:46:11;;;;;;;;;;;14.00;99.90;;;;;;5005143;28;20460;-71
2021/05/12 08:48:37;;;;;;;;;;;14.00;96.30;;;;;;5007367;28;19924;-71
2021/05/12 08:51:03;;;;;;;;;;;13.90;94.10;;;;;;5026114;28;19924;-71
2021/05/12 08:53:31;;;;;;;;;;;13.90;98.30;;;;;;5030385;28;19946;-71
2021/05/12 08:56:00;;;;;;;;;;;13.90;97.20;;;;;;5027615;28;19917;-73
2021/05/12 08:58:25;;;;;;;;;;;13.70;92.40;;;;;;5011844;28;19927;-72
2021/05/12 09:00:51;;;;;;;;;;;13.70;94.00;;;;;;5028829;28;20553;-71
2021/05/12 09:03:16;;;;;;;;;;;13.70;96.40;;;;;;5008356;28;20535;-71
2021/05/12 09:05:44;;;;;;;;;;;13.70;98.80;;;;;;5028830;28;19913;-71
2021/05/12 09:08:10;;;;;;;;;;;13.80;96.80;;;;;;5007517;28;19925;-71
2021/05/12 09:10:35;;;;;;;;;;;13.90;99.90;;;;;;5010280;28;20338;-71
2021/05/12 09:13:01;;;;;;;;;;;13.90;98.40;;;;;;5029457;28;19923;-72
2021/05/12 09:15:27;;;;;;;;;;;14.00;98.70;;;;;;5030477;28;19921;-72
2021/05/12 09:17:56;;;;;;;;;;;14.00;99.90;;;;;;5028693;28;19991;-72
2021/05/12 09:20:22;;;;;;;;;;;14.10;98.80;;;;;;5029080;28;20003;-71
2021/05/12 09:23:00;;;;;;;;;;;14.00;90.50;;;;;;5028752;28;19913;-72
2021/05/12 09:25:32;;;;;;;;;;;14.10;94.00;;;;;;5029295;28;20862;-71
2021/05/12 09:28:16;;;;;;;;;;;14.10;90.70;;;;;;5029763;28;20012;-71
2021/05/12 09:30:43;;;;;;;;;;;14.20;92.20;;;;;;5027792;28;19948;-71
2021/05/12 09:33:09;;;;;;;;;;;14.20;92.50;;;;;;4995471;28;19963;-71
2021/05/12 09:35:39;;;;;;;;;;;14.30;91.20;;;;;;5027921;28;19952;-71
2021/05/12 09:38:09;;;;;;;;;;;14.30;90.90;;;;;;5028566;28;19924;-71
2021/05/12 09:40:37;;;;;;;;;;;14.40;93.00;;;;;;5013878;28;19917;-72
2021/05/12 09:43:03;;;;;;;;;;;14.50;92.90;;;;;;5026424;28;19978;-71
2021/05/12 09:45:30;;;;;;;;;;;14.50;92.00;;;;;;5027151;28;20302;-71
2021/05/12 09:48:03;;;;;;;;;;;14.70;96.90;;;;;;5007899;28;19944;-70
2021/05/12 09:50:34;;;;;;;;;;;14.80;93.50;;;;;;5011823;28;19913;-72
2021/05/12 09:53:00;;;;;;;;;;;15.00;92.70;;;;;;5027544;28;19924;-71
2021/05/12 09:55:32;;;;;;;;;;;15.00;92.70;;;;;;5029349;28;19917;-71
2021/05/12 09:57:58;;;;;;;;;;;15.20;92.40;;;;;;5013700;28;19928;-71
2021/05/12 10:00:36;;;;;;;;;;;15.30;91.20;;;;;;5028808;28;19913;-71
2021/05/12 10:03:04;;;;;;;;;;;15.40;90.40;;;;;;5008922;28;19935;-71
2021/05/12 10:05:50;;;;;;;;;;;15.50;90.00;;;;;;5027925;28;19925;-70
2021/05/12 10:08:19;;;;;;;;;;;15.70;93.60;;;;;;5026847;28;20349;-71
2021/05/12 10:10:45;;;;;;;;;;;15.90;91.00;;;;;;5027391;28;19929;-71
2021/05/12 10:13:11;;;;;;;;;;;16.10;92.60;;;;;;5027420;28;19921;-71
2021/05/12 10:15:36;;;;;;;;;;;16.20;92.00;;;;;;5012401;28;19924;-71
2021/05/12 10:18:02;;;;;;;;;;;16.20;88.60;;;;;;5029370;28;19933;-71
2021/05/12 10:20:28;;;;;;;;;;;16.20;87.30;;;;;;5013150;28;19975;-72
2021/05/12 10:22:56;;;;;;;;;;;16.10;81.90;;;;;;5029224;28;19975;-71
2021/05/12 10:25:21;;;;;;;;;;;16.10;84.70;;;;;;5008030;28;20012;-71
2021/05/12 10:27:47;;;;;;;;;;;16.20;86.70;;;;;;5028365;28;20028;-71
2021/05/12 10:30:13;;;;;;;;;;;16.30;95.30;;;;;;5006067;28;20336;-71
2021/05/12 10:32:43;;;;;;;;;;;16.30;90.60;;;;;;5012254;28;19979;-70
2021/05/12 10:35:09;;;;;;;;;;;16.30;90.10;;;;;;5026270;28;19940;-70
2021/05/12 10:37:35;;;;;;;;;;;16.30;86.60;;;;;;4994339;28;19913;-71
2021/05/12 10:40:04;;;;;;;;;;;16.20;81.00;;;;;;5028321;28;20254;-71
2021/05/12 10:42:42;;;;;;;;;;;16.20;85.00;;;;;;5029223;28;20520;-69
2021/05/12 10:45:10;;;;;;;;;;;16.20;85.20;;;;;;5028042;28;19943;-72
2021/05/12 10:47:38;;;;;;;;;;;16.20;90.20;;;;;;5011324;28;19978;-70
2021/05/12 10:50:04;;;;;;;;;;;16.20;92.60;;;;;;5027629;28;19921;-71
2021/05/12 10:52:30;;;;;;;;;;;16.20;94.00;;;;;;5028077;28;19927;-72
2021/05/12 10:54:58;;;;;;;;;;;16.20;97.50;;;;;;5008903;28;20364;-72
2021/05/12 10:57:35;;;;;;;;;;;16.20;97.40;;;;;;5026520;28;19960;-70
2021/05/12 11:00:01;;;;;;;;;;;16.10;90.60;;;;;;5006795;28;19921;-71
2021/05/12 11:03:00;;;;;;;;;;;16.10;91.50;;;;;;4993343;28;19975;-70
2021/05/12 11:05:39;;;;;;;;;;;16.10;90.70;;;;;;5014584;28;19913;-71
2021/05/12 11:08:11;;;;;;;;;;;16.10;90.90;;;;;;5009696;28;19936;-71
2021/05/12 11:10:55;;;;;;;;;;;16.10;90.40;;;;;;5008701;28;19916;-71
2021/05/12 11:13:23;;;;;;;;;;;16.10;91.90;;;;;;5026581;28;19936;-71
2021/05/12 11:15:59;;;;;;;;;;;16.10;90.90;;;;;;5009432;28;19921;-71
2021/05/12 11:18:36;;;;;;;;;;;16.10;91.80;;;;;;5027102;28;20019;-71
2021/05/12 11:21:24;;;;;;;;;;;16.20;95.70;;;;;;5023062;28;19921;-70
2021/05/12 11:23:58;;;;;;;;;;;16.20;94.10;;;;;;5027160;28;20078;-70
2021/05/12 11:26:42;;;;;;;;;;;16.20;95.70;;;;;;5024973;28;19932;-71
2021/05/12 11:31:55;;;;;;;;;;;16.00;95.50;;;;;;5008928;28;19924;-72
2021/05/12 11:34:20;;;;;;;;;;;16.00;94.00;;;;;;5027628;28;19949;-71
2021/05/12 11:36:46;;;;;;;;;;;16.00;98.20;;;;;;5007609;28;19952;-71
2021/05/12 11:39:11;;;;;;;;;;;16.00;98.60;;;;;;5025092;28;19963;-71
2021/05/12 11:41:39;;;;;;;;;;;16.00;97.90;;;;;;5025159;28;19921;-71
2021/05/12 11:44:09;;;;;;;;;;;16.10;97.80;;;;;;5024972;28;20199;-71
2021/05/12 11:46:41;;;;;;;;;;;16.10;99.90;;;;;;5008596;28;19931;-71
2021/05/12 11:49:09;;;;;;;;;;;16.10;98.80;;;;;;5024136;28;19921;-72
2021/05/12 11:51:47;;;;;;;;;;;16.10;91.00;;;;;;5006447;28;20449;-72
2021/05/12 11:54:22;;;;;;;;;;;16.20;95.20;;;;;;5027758;28;19914;-71
2021/05/12 11:56:49;;;;;;;;;;;16.40;99.90;;;;;;4993184;28;20398;-71
2021/05/12 11:59:15;;;;;;;;;;;16.50;97.80;;;;;;5025165;28;19944;-71
2021/05/12 12:01:44;;;;;;;;;;;16.80;99.30;;;;;;5026538;28;19921;-71
2021/05/12 12:04:18;;;;;;;;;;;17.00;95.70;;;;;;5025425;28;19913;-71
2021/05/12 12:06:45;;;;;;;;;;;17.10;94.10;;;;;;5025520;28;19917;-71
2021/05/12 12:09:10;;;;;;;;;;;17.10;89.50;;;;;;3971106;28;10000480;-71
2021/05/12 12:11:38;;;;;;;;;;;17.10;89.70;;;;;;5000370;28;19991;-71
2021/05/12 12:14:06;;;;;;;;;;;17.20;94.20;;;;;;5022352;28;19920;-71
2021/05/12 12:16:32;;;;;;;;;;;17.10;90.00;;;;;;5021836;28;19961;-71
2021/05/12 12:18:58;;;;;;;;;;;17.10;84.30;;;;;;5022678;28;19983;-72
2021/05/12 12:21:26;;;;;;;;;;;17.00;81.20;;;;;;5001408;28;20406;-71
2021/05/12 12:23:54;;;;;;;;;;;17.10;93.30;;;;;;5005735;28;19980;-72
2021/05/12 12:26:20;;;;;;;;;;;17.10;94.80;;;;;;5015295;28;19917;-71
2021/05/12 12:28:46;;;;;;;;;;;17.00;88.00;;;;;;5004327;28;19921;-72
2021/05/12 12:31:12;;;;;;;;;;;16.90;81.60;;;;;;5010192;28;19931;-71
2021/05/12 12:33:38;;;;;;;;;;;16.90;86.00;;;;;;5008415;28;19952;-71
2021/05/12 12:36:15;;;;;;;;;;;16.90;92.80;;;;;;5011654;28;19957;-71
2021/05/12 12:38:48;;;;;;;;;;;16.80;94.50;;;;;;4665624;28;9999759;-71
2021/05/12 12:41:14;;;;;;;;;;;16.80;94.90;;;;;;5027661;28;19931;-71
2021/05/12 12:43:43;;;;;;;;;;;16.70;88.40;;;;;;5014702;28;20016;-71
2021/05/12 12:46:08;;;;;;;;;;;16.60;84.00;;;;;;5012905;28;19921;-71
2021/05/12 12:48:36;;;;;;;;;;;16.60;91.30;;;;;;5024512;28;20204;-71
2021/05/12 12:51:02;;;;;;;;;;;16.60;93.70;;;;;;5025847;28;20492;-71
2021/05/12 12:53:30;;;;;;;;;;;16.60;91.30;;;;;;5005031;28;19957;-71
2021/05/12 12:56:05;;;;;;;;;;;16.60;90.00;;;;;;5025822;28;19917;-71
2021/05/12 12:58:31;;;;;;;;;;;16.50;88.10;;;;;;5026141;28;19917;-71
2021/05/12 13:00:56;;;;;;;;;;;16.50;90.60;;;;;;5028645;28;20493;-72
2021/05/12 13:03:23;;;;;;;;;;;16.50;83.40;;;;;;5006631;28;20731;-72
2021/05/12 13:05:55;;;;;;;;;;;16.50;91.50;;;;;;5028648;28;20347;-70
2021/05/12 13:08:30;;;;;;;;;;;16.60;90.20;;;;;;5012029;28;19991;-70
2021/05/12 13:10:56;;;;;;;;;;;16.50;92.50;;;;;;5005202;28;19987;-70
2021/05/12 13:13:29;;;;;;;;;;;16.60;96.90;;;;;;5027550;28;20317;-70
2021/05/12 13:15:55;;;;;;;;;;;16.60;93.20;;;;;;5028781;28;19921;-71
2021/05/12 13:18:39;;;;;;;;;;;16.60;87.60;;;;;;5011463;28;19940;-70
2021/05/12 13:21:04;;;;;;;;;;;16.60;95.00;;;;;;5028753;28;19913;-71
2021/05/12 13:23:30;;;;;;;;;;;16.40;90.70;;;;;;5028409;28;20177;-70
2021/05/12 13:25:57;;;;;;;;;;;16.50;93.70;;;;;;5010975;28;19917;-71
2021/05/12 13:28:26;;;;;;;;;;;16.50;95.60;;;;;;5029417;28;19952;-71
2021/05/12 13:30:59;;;;;;;;;;;16.50;96.80;;;;;;5026601;28;19921;-71
2021/05/12 13:33:26;;;;;;;;;;;16.50;95.10;;;;;;5005532;28;19963;-70
2021/05/12 13:35:52;;;;;;;;;;;16.50;93.40;;;;;;5007605;28;19922;-70
2021/05/12 13:38:19;;;;;;;;;;;16.50;91.40;;;;;;5025745;28;20251;-70
2021/05/12 13:40:45;;;;;;;;;;;16.50;94.90;;;;;;5006516;28;19924;-71
2021/05/12 13:43:10;;;;;;;;;;;16.50;96.20;;;;;;5026727;28;19921;-71
2021/05/12 13:45:38;;;;;;;;;;;16.50;95.10;;;;;;5027218;28;19921;-70
2021/05/12 13:48:06;;;;;;;;;;;16.40;90.70;;;;;;5028260;28;20659;-70
2021/05/12 13:50:33;;;;;;;;;;;16.40;93.60;;;;;;5008231;28;19917;-70
2021/05/12 13:53:25;;;;;;;;;;;16.50;95.30;;;;;;5034907;28;19914;-70
2021/05/12 13:58:45;;;;;;;;;;;16.40;94.10;;;;;;5036387;28;19936;-70
2021/05/12 14:03:48;;;;;;;;;;;16.50;99.90;;;;;;5036762;28;19919;-70
2021/05/12 14:06:34;;;;;;;;;;;16.60;97.50;;;;;;5019049;28;19910;-70
2021/05/12 14:09:14;;;;;;;;;;;16.60;92.70;;;;;;5021885;28;19945;-70
2021/05/12 14:15:28;;;;;;;;;;;16.60;92.30;;;;;;5002700;28;19909;-71
2021/05/12 14:17:27;;;;;;;;;;;16.60;90.60;;;;;;5016902;28;20424;-71
2021/05/12 14:19:53;;;;;;;;;;;16.60;92.30;;;;;;5018813;28;20002;-71
2021/05/12 14:22:21;;;;;;;;;;;16.60;95.40;;;;;;5018753;28;20000;-70
2021/05/12 14:24:47;;;;;;;;;;;16.70;91.10;;;;;;5019137;28;19920;-70
2021/05/12 14:27:13;;;;;;;;;;;16.60;91.80;;;;;;5036434;28;19909;-71
2021/05/12 14:29:42;;;;;;;;;;;16.70;91.30;;;;;;5018929;28;19925;-70
2021/05/12 14:32:11;;;;;;;;;;;16.60;86.90;;;;;;5018916;28;19996;-70